Water Valley, Kentucky
Current Conditions -  °F | °C
As of 12:15 AM on Friday 19 Dec 2014 (Local Time) from KUCY Reporting Station
Overcast Overcast  
Wind Chill: 29°   Ceiling: 4800
Heat Index: 34°   Visibility: 10mi
Dew Point: 34°   Wind: 6mph
Humidity: 100%   Direction: 10°N
Pressure: 30.25"   Gusts: NA
Location:  36.57°N, 88.81°W
Report Text: KUCY 190615Z AUTO 01005KT 10SM OVC048 01/01 A3025 RMK
Loading
Personal Weather Stations






























Interactive Weather Map New forecast layout! Learn more

10-Day Weather Forecast

Advertisements
Track Severe Weather on mobile